sensor_id;sensor_type;location;lat;lon;timestamp;pressure;altitude;pressure_sealevel;temperature;humidity
52291;BME280;39663;45.432;28.050;2023-04-15T00:09:12;100499.89;;;11.65;56.39
52291;BME280;39663;45.432;28.050;2023-04-15T00:09:43;100497.60;;;12.26;56.21
52291;BME280;39663;45.432;28.050;2023-04-15T00:10:14;100497.07;;;12.05;56.22
52291;BME280;39663;45.432;28.050;2023-04-15T00:10:46;100492.36;;;12.40;55.80
52291;BME280;39663;45.432;28.050;2023-04-15T00:11:17;100491.89;;;12.57;54.79
52291;BME280;39663;45.432;28.050;2023-04-15T00:11:49;100494.95;;;12.29;55.13
52291;BME280;39663;45.432;28.050;2023-04-15T00:12:21;100494.48;;;12.02;55.73
52291;BME280;39663;45.432;28.050;2023-04-15T00:12:52;100492.60;;;11.91;55.90
52291;BME280;39663;45.432;28.050;2023-04-15T00:13:23;100493.10;;;11.71;56.53
52291;BME280;39663;45.432;28.050;2023-04-15T00:13:55;100491.62;;;12.04;56.17
52291;BME280;39663;45.432;28.050;2023-04-15T00:14:26;100491.82;;;12.12;55.75
52291;BME280;39663;45.432;28.050;2023-04-15T00:14:58;100490.69;;;11.93;55.59
52291;BME280;39663;45.432;28.050;2023-04-15T00:15:29;100490.40;;;12.03;55.59
52291;BME280;39663;45.432;28.050;2023-04-15T00:16:01;100485.50;;;12.38;55.09
52291;BME280;39663;45.432;28.050;2023-04-15T00:16:32;100487.28;;;12.57;54.81
52291;BME280;39663;45.432;28.050;2023-04-15T00:17:03;100490.51;;;12.51;54.41
52291;BME280;39663;45.432;28.050;2023-04-15T00:17:35;100491.37;;;12.60;54.26
52291;BME280;39663;45.432;28.050;2023-04-15T00:18:06;100492.69;;;12.65;54.12
52291;BME280;39663;45.432;28.050;2023-04-15T00:18:38;100492.97;;;12.67;54.17
52291;BME280;39663;45.432;28.050;2023-04-15T00:19:09;100494.22;;;12.72;54.38
52291;BME280;39663;45.432;28.050;2023-04-15T00:19:41;100494.70;;;12.69;54.36
52291;BME280;39663;45.432;28.050;2023-04-15T00:20:12;100492.10;;;12.58;54.65
52291;BME280;39663;45.432;28.050;2023-04-15T00:20:44;100494.31;;;12.47;54.93
52291;BME280;39663;45.432;28.050;2023-04-15T00:21:15;100495.18;;;12.86;54.30
52291;BME280;39663;45.432;28.050;2023-04-15T00:21:46;100494.96;;;12.59;54.32
52291;BME280;39663;45.432;28.050;2023-04-15T00:22:18;100495.10;;;12.69;54.35
52291;BME280;39663;45.432;28.050;2023-04-15T00:22:49;100498.81;;;12.47;54.69
52291;BME280;39663;45.432;28.050;2023-04-15T00:23:21;100499.12;;;12.60;54.66
52291;BME280;39663;45.432;28.050;2023-04-15T00:23:52;100498.62;;;12.76;54.08
52291;BME280;39663;45.432;28.050;2023-04-15T00:24:24;100500.80;;;12.70;54.18
52291;BME280;39663;45.432;28.050;2023-04-15T00:24:55;100502.97;;;12.94;53.43
52291;BME280;39663;45.432;28.050;2023-04-15T00:25:26;100503.24;;;13.01;53.67
52291;BME280;39663;45.432;28.050;2023-04-15T00:25:58;100502.14;;;12.98;53.49
52291;BME280;39663;45.432;28.050;2023-04-15T00:26:29;100500.70;;;13.33;53.16
52291;BME280;39663;45.432;28.050;2023-04-15T00:27:00;100501.82;;;13.41;52.95
52291;BME280;39663;45.432;28.050;2023-04-15T00:27:32;100500.99;;;13.56;52.36
52291;BME280;39663;45.432;28.050;2023-04-15T00:28:03;100502.34;;;13.42;52.42
52291;BME280;39663;45.432;28.050;2023-04-15T00:28:35;100504.13;;;13.53;52.43
52291;BME280;39663;45.432;28.050;2023-04-15T00:29:06;100505.35;;;13.41;52.29
52291;BME280;39663;45.432;28.050;2023-04-15T00:29:37;100504.78;;;13.76;51.68
52291;BME280;39663;45.432;28.050;2023-04-15T00:30:09;100504.87;;;13.78;51.46
52291;BME280;39663;45.432;28.050;2023-04-15T00:30:40;100503.95;;;13.91;51.30
52291;BME280;39663;45.432;28.050;2023-04-15T00:31:12;100502.39;;;14.05;50.94
52291;BME280;39663;45.432;28.050;2023-04-15T00:31:43;100502.91;;;14.13;51.08
52291;BME280;39663;45.432;28.050;2023-04-15T00:32:14;100501.64;;;14.14;50.81
52291;BME280;39663;45.432;28.050;2023-04-15T00:32:46;100501.08;;;14.16;50.69
52291;BME280;39663;45.432;28.050;2023-04-15T00:33:17;100500.97;;;14.26;50.58
52291;BME280;39663;45.432;28.050;2023-04-15T00:33:49;100500.14;;;14.29;50.55
52291;BME280;39663;45.432;28.050;2023-04-15T00:34:20;100498.66;;;14.43;50.38
52291;BME280;39663;45.432;28.050;2023-04-15T00:34:51;100497.68;;;14.13;50.33
52291;BME280;39663;45.432;28.050;2023-04-15T00:35:23;100495.23;;;14.62;50.19
52291;BME280;39663;45.432;28.050;2023-04-15T00:35:54;100497.23;;;14.22;50.14
52291;BME280;39663;45.432;28.050;2023-04-15T00:36:25;100496.38;;;14.29;49.83
52291;BME280;39663;45.432;28.050;2023-04-15T00:36:57;100496.54;;;14.48;49.67
52291;BME280;39663;45.432;28.050;2023-04-15T00:37:28;100497.87;;;14.41;49.69
52291;BME280;39663;45.432;28.050;2023-04-15T00:37:59;100497.56;;;14.41;49.44
52291;BME280;39663;45.432;28.050;2023-04-15T00:38:31;100499.31;;;14.71;49.48
52291;BME280;39663;45.432;28.050;2023-04-15T00:39:02;100498.63;;;14.56;49.29
52291;BME280;39663;45.432;28.050;2023-04-15T00:39:33;100501.33;;;14.69;49.22
52291;BME280;39663;45.432;28.050;2023-04-15T00:40:06;100501.85;;;14.76;48.80
52291;BME280;39663;45.432;28.050;2023-04-15T00:40:42;100501.88;;;14.93;49.05
52291;BME280;39663;45.432;28.050;2023-04-15T00:41:13;100502.61;;;14.88;48.66
52291;BME280;39663;45.432;28.050;2023-04-15T00:41:45;100505.46;;;14.75;48.95
52291;BME280;39663;45.432;28.050;2023-04-15T00:42:17;100506.16;;;14.72;49.10
52291;BME280;39663;45.432;28.050;2023-04-15T00:42:50;100507.91;;;14.76;49.05
52291;BME280;39663;45.432;28.050;2023-04-15T00:43:21;100507.03;;;14.50;49.12
52291;BME280;39663;45.432;28.050;2023-04-15T00:43:52;100509.65;;;14.76;48.99
52291;BME280;39663;45.432;28.050;2023-04-15T00:44:24;100510.21;;;14.62;49.32
52291;BME280;39663;45.432;28.050;2023-04-15T00:44:55;100511.92;;;14.68;49.45
52291;BME280;39663;45.432;28.050;2023-04-15T00:45:27;100509.80;;;14.61;49.39
52291;BME280;39663;45.432;28.050;2023-04-15T00:45:59;100509.86;;;14.60;49.20
52291;BME280;39663;45.432;28.050;2023-04-15T00:46:31;100508.98;;;14.56;49.02
52291;BME280;39663;45.432;28.050;2023-04-15T00:47:03;100511.38;;;14.75;49.01
52291;BME280;39663;45.432;28.050;2023-04-15T00:47:36;100510.15;;;14.75;49.09
52291;BME280;39663;45.432;28.050;2023-04-15T00:48:09;100511.60;;;14.61;49.01
52291;BME280;39663;45.432;28.050;2023-04-15T00:48:41;100510.19;;;14.83;48.89
52291;BME280;39663;45.432;28.050;2023-04-15T00:49:13;100509.66;;;14.95;48.57
52291;BME280;39663;45.432;28.050;2023-04-15T00:49:44;100509.59;;;14.90;48.72
52291;BME280;39663;45.432;28.050;2023-04-15T00:50:16;100511.09;;;15.05;48.44
52291;BME280;39663;45.432;28.050;2023-04-15T00:50:47;100509.70;;;14.97;48.69
52291;BME280;39663;45.432;28.050;2023-04-15T00:51:19;100511.30;;;15.00;48.60
52291;BME280;39663;45.432;28.050;2023-04-15T00:51:50;100509.55;;;14.83;48.91
52291;BME280;39663;45.432;28.050;2023-04-15T00:52:21;100507.95;;;14.86;49.01
52291;BME280;39663;45.432;28.050;2023-04-15T00:52:53;100509.08;;;14.87;48.93
52291;BME280;39663;45.432;28.050;2023-04-15T00:53:24;100509.37;;;14.84;48.87
52291;BME280;39663;45.432;28.050;2023-04-15T00:53:56;100509.12;;;14.81;48.91
52291;BME280;39663;45.432;28.050;2023-04-15T00:54:27;100508.52;;;14.94;48.82
52291;BME280;39663;45.432;28.050;2023-04-15T00:54:59;100507.87;;;15.00;48.59
52291;BME280;39663;45.432;28.050;2023-04-15T00:55:30;100507.14;;;14.96;48.66
52291;BME280;39663;45.432;28.050;2023-04-15T00:56:02;100507.45;;;14.97;48.37
52291;BME280;39663;45.432;28.050;2023-04-15T00:56:35;100507.05;;;14.91;48.74
52291;BME280;39663;45.432;28.050;2023-04-15T00:57:07;100506.15;;;15.00;48.66
52291;BME280;39663;45.432;28.050;2023-04-15T00:57:39;100503.01;;;15.01;48.79
52291;BME280;39663;45.432;28.050;2023-04-15T00:58:10;100503.16;;;15.07;48.46
52291;BME280;39663;45.432;28.050;2023-04-15T00:58:42;100503.54;;;15.12;48.46
52291;BME280;39663;45.432;28.050;2023-04-15T00:59:14;100503.02;;;15.19;48.21
52291;BME280;39663;45.432;28.050;2023-04-15T00:59:45;100502.65;;;15.07;47.92
52291;BME280;39663;45.432;28.050;2023-04-15T01:00:17;100506.04;;;15.18;48.22
52291;BME280;39663;45.432;28.050;2023-04-15T01:00:48;100503.26;;;14.98;48.64
52291;BME280;39663;45.432;28.050;2023-04-15T01:01:21;100506.27;;;15.03;48.75
52291;BME280;39663;45.432;28.050;2023-04-15T01:01:55;100508.24;;;15.06;48.61
52291;BME280;39663;45.432;28.050;2023-04-15T01:04:27;100517.80;;;15.21;47.97
52291;BME280;39663;45.432;28.050;2023-04-15T01:05:00;100516.67;;;15.21;48.25
52291;BME280;39663;45.432;28.050;2023-04-15T01:05:31;100516.82;;;15.16;48.31
52291;BME280;39663;45.432;28.050;2023-04-15T01:06:03;100515.39;;;15.21;48.14
52291;BME280;39663;45.432;28.050;2023-04-15T01:06:35;100516.03;;;15.16;47.96
52291;BME280;39663;45.432;28.050;2023-04-15T01:07:06;100515.85;;;15.27;48.21
52291;BME280;39663;45.432;28.050;2023-04-15T01:07:38;100519.91;;;15.07;47.82
52291;BME280;39663;45.432;28.050;2023-04-15T01:08:10;100521.12;;;15.34;48.11
52291;BME280;39663;45.432;28.050;2023-04-15T01:08:41;100522.64;;;15.23;48.09
52291;BME280;39663;45.432;28.050;2023-04-15T01:09:13;100526.47;;;15.05;48.56
52291;BME280;39663;45.432;28.050;2023-04-15T01:09:44;100527.26;;;15.31;48.00
52291;BME280;39663;45.432;28.050;2023-04-15T01:10:16;100526.83;;;15.14;48.03
52291;BME280;39663;45.432;28.050;2023-04-15T01:10:48;100530.85;;;15.21;47.56
52291;BME280;39663;45.432;28.050;2023-04-15T01:11:19;100530.04;;;15.15;47.99
52291;BME280;39663;45.432;28.050;2023-04-15T01:11:52;100534.12;;;15.19;47.86
52291;BME280;39663;45.432;28.050;2023-04-15T01:12:23;100535.86;;;15.34;47.99
52291;BME280;39663;45.432;28.050;2023-04-15T01:12:56;100539.48;;;15.41;47.63
52291;BME280;39663;45.432;28.050;2023-04-15T01:13:28;100542.55;;;15.27;48.02
52291;BME280;39663;45.432;28.050;2023-04-15T01:14:00;100545.20;;;15.20;47.72
52291;BME280;39663;45.432;28.050;2023-04-15T01:14:33;100544.18;;;15.19;47.89
52291;BME280;39663;45.432;28.050;2023-04-15T01:15:05;100541.33;;;15.46;47.77
52291;BME280;39663;45.432;28.050;2023-04-15T01:15:37;100540.10;;;15.46;47.32
52291;BME280;39663;45.432;28.050;2023-04-15T01:16:09;100536.44;;;15.11;47.86
52291;BME280;39663;45.432;28.050;2023-04-15T01:16:41;100533.35;;;15.34;48.04
52291;BME280;39663;45.432;28.050;2023-04-15T01:17:12;100532.09;;;15.32;47.92
52291;BME280;39663;45.432;28.050;2023-04-15T01:17:44;100530.09;;;15.13;47.96
52291;BME280;39663;45.432;28.050;2023-04-15T01:18:16;100528.54;;;15.34;48.10
52291;BME280;39663;45.432;28.050;2023-04-15T01:18:48;100524.98;;;15.20;47.68
52291;BME280;39663;45.432;28.050;2023-04-15T01:19:19;100520.43;;;15.11;48.02
52291;BME280;39663;45.432;28.050;2023-04-15T01:19:51;100518.74;;;15.41;47.25
52291;BME280;39663;45.432;28.050;2023-04-15T01:20:22;100516.47;;;15.21;47.41
52291;BME280;39663;45.432;28.050;2023-04-15T01:20:54;100512.15;;;15.37;48.03
52291;BME280;39663;45.432;28.050;2023-04-15T01:21:26;100508.62;;;15.15;47.72
52291;BME280;39663;45.432;28.050;2023-04-15T01:21:57;100510.17;;;15.41;47.40
52291;BME280;39663;45.432;28.050;2023-04-15T01:22:28;100509.70;;;15.34;47.92
52291;BME280;39663;45.432;28.050;2023-04-15T01:23:00;100511.37;;;14.94;47.93
52291;BME280;39663;45.432;28.050;2023-04-15T01:23:35;100514.81;;;15.16;48.18
52291;BME280;39663;45.432;28.050;2023-04-15T01:24:09;100515.29;;;14.87;48.43
52291;BME280;39663;45.432;28.050;2023-04-15T01:24:42;100516.54;;;15.19;48.04
52291;BME280;39663;45.432;28.050;2023-04-15T01:25:18;100521.31;;;14.88;47.95
52291;BME280;39663;45.432;28.050;2023-04-15T01:25:50;100525.10;;;15.04;48.51
52291;BME280;39663;45.432;28.050;2023-04-15T01:26:23;100525.82;;;15.05;48.45
52291;BME280;39663;45.432;28.050;2023-04-15T01:26:54;100528.01;;;15.08;48.45
52291;BME280;39663;45.432;28.050;2023-04-15T01:27:26;100529.13;;;15.11;48.39
52291;BME280;39663;45.432;28.050;2023-04-15T01:27:57;100529.11;;;15.19;47.83
52291;BME280;39663;45.432;28.050;2023-04-15T01:28:28;100528.45;;;14.90;48.32
52291;BME280;39663;45.432;28.050;2023-04-15T01:29:00;100527.52;;;15.09;48.44
52291;BME280;39663;45.432;28.050;2023-04-15T01:29:35;100523.13;;;15.17;48.35
52291;BME280;39663;45.432;28.050;2023-04-15T01:30:08;100521.62;;;15.29;47.79
52291;BME280;39663;45.432;28.050;2023-04-15T01:30:39;100519.31;;;15.21;48.18
52291;BME280;39663;45.432;28.050;2023-04-15T01:31:12;100518.73;;;15.20;48.18
52291;BME280;39663;45.432;28.050;2023-04-15T01:31:49;100519.62;;;15.02;48.23
52291;BME280;39663;45.432;28.050;2023-04-15T01:32:21;100520.53;;;15.35;47.58
52291;BME280;39663;45.432;28.050;2023-04-15T01:32:52;100523.47;;;15.35;47.95
52291;BME280;39663;45.432;28.050;2023-04-15T01:33:24;100527.77;;;15.42;47.43
52291;BME280;39663;45.432;28.050;2023-04-15T01:34:00;100530.65;;;15.35;47.82
52291;BME280;39663;45.432;28.050;2023-04-15T01:34:32;100535.94;;;15.24;47.84
52291;BME280;39663;45.432;28.050;2023-04-15T01:35:03;100538.13;;;15.27;47.95
52291;BME280;39663;45.432;28.050;2023-04-15T01:35:35;100536.06;;;15.35;47.78
52291;BME280;39663;45.432;28.050;2023-04-15T01:36:07;100536.41;;;15.41;47.61
52291;BME280;39663;45.432;28.050;2023-04-15T01:36:39;100536.69;;;15.46;47.32
52291;BME280;39663;45.432;28.050;2023-04-15T01:37:10;100535.92;;;15.46;47.55
52291;BME280;39663;45.432;28.050;2023-04-15T01:37:42;100534.15;;;15.40;47.60
52291;BME280;39663;45.432;28.050;2023-04-15T01:38:14;100534.04;;;15.31;47.02
52291;BME280;39663;45.432;28.050;2023-04-15T01:38:45;100531.49;;;15.44;47.58
52291;BME280;39663;45.432;28.050;2023-04-15T01:39:17;100533.01;;;15.36;47.51
52291;BME280;39663;45.432;28.050;2023-04-15T01:39:49;100534.92;;;15.19;47.75
52291;BME280;39663;45.432;28.050;2023-04-15T01:40:20;100533.48;;;15.16;47.98
52291;BME280;39663;45.432;28.050;2023-04-15T01:40:51;100533.82;;;15.38;47.49
52291;BME280;39663;45.432;28.050;2023-04-15T01:41:25;100533.04;;;15.41;47.63
52291;BME280;39663;45.432;28.050;2023-04-15T01:41:56;100532.73;;;15.41;47.66
52291;BME280;39663;45.432;28.050;2023-04-15T01:42:28;100531.40;;;15.37;47.53
52291;BME280;39663;45.432;28.050;2023-04-15T01:42:59;100532.86;;;15.42;47.15
52291;BME280;39663;45.432;28.050;2023-04-15T01:43:31;100533.13;;;15.30;47.79
52291;BME280;39663;45.432;28.050;2023-04-15T01:44:02;100533.86;;;15.32;47.70
52291;BME280;39663;45.432;28.050;2023-04-15T01:44:34;100534.05;;;15.18;47.77
52291;BME280;39663;45.432;28.050;2023-04-15T01:45:06;100532.99;;;15.43;47.77
52291;BME280;39663;45.432;28.050;2023-04-15T01:45:37;100532.80;;;15.57;47.18
52291;BME280;39663;45.432;28.050;2023-04-15T01:46:09;100532.13;;;15.23;47.60
52291;BME280;39663;45.432;28.050;2023-04-15T01:46:40;100532.50;;;15.21;47.21
52291;BME280;39663;45.432;28.050;2023-04-15T01:47:12;100530.67;;;15.04;47.54
52291;BME280;39663;45.432;28.050;2023-04-15T01:47:43;100532.65;;;15.40;47.59
52291;BME280;39663;45.432;28.050;2023-04-15T01:48:14;100535.01;;;15.34;47.69
52291;BME280;39663;45.432;28.050;2023-04-15T01:48:46;100535.71;;;15.37;47.82
52291;BME280;39663;45.432;28.050;2023-04-15T01:49:17;100533.90;;;15.18;47.61
52291;BME280;39663;45.432;28.050;2023-04-15T01:49:49;100535.71;;;15.31;47.93
52291;BME280;39663;45.432;28.050;2023-04-15T01:50:20;100535.31;;;15.19;47.39
52291;BME280;39663;45.432;28.050;2023-04-15T01:50:53;100537.44;;;14.94;47.71
52291;BME280;39663;45.432;28.050;2023-04-15T01:51:24;100536.35;;;15.45;47.59
52291;BME280;39663;45.432;28.050;2023-04-15T01:51:56;100534.73;;;15.15;47.82
52291;BME280;39663;45.432;28.050;2023-04-15T01:52:27;100534.47;;;15.41;47.75
52291;BME280;39663;45.432;28.050;2023-04-15T01:52:59;100531.84;;;15.42;47.59
52291;BME280;39663;45.432;28.050;2023-04-15T01:53:30;100532.76;;;15.27;47.71
52291;BME280;39663;45.432;28.050;2023-04-15T01:54:01;100531.34;;;15.24;47.80
52291;BME280;39663;45.432;28.050;2023-04-15T01:54:32;100534.68;;;15.58;46.65
52291;BME280;39663;45.432;28.050;2023-04-15T01:55:05;100534.64;;;15.30;47.21
52291;BME280;39663;45.432;28.050;2023-04-15T01:55:36;100532.30;;;15.40;47.30
52291;BME280;39663;45.432;28.050;2023-04-15T01:56:08;100531.92;;;15.34;47.72
52291;BME280;39663;45.432;28.050;2023-04-15T01:56:39;100531.61;;;15.19;46.96
52291;BME280;39663;45.432;28.050;2023-04-15T01:57:11;100533.90;;;15.38;47.33
52291;BME280;39663;45.432;28.050;2023-04-15T01:57:42;100533.12;;;15.17;47.84
52291;BME280;39663;45.432;28.050;2023-04-15T01:58:14;100533.66;;;15.19;47.80
52291;BME280;39663;45.432;28.050;2023-04-15T01:58:46;100535.62;;;15.29;47.26
52291;BME280;39663;45.432;28.050;2023-04-15T01:59:17;100535.54;;;15.17;47.65
52291;BME280;39663;45.432;28.050;2023-04-15T01:59:49;100537.09;;;15.40;47.45
52291;BME280;39663;45.432;28.050;2023-04-15T02:00:20;100537.41;;;15.36;47.54
52291;BME280;39663;45.432;28.050;2023-04-15T02:00:52;100536.51;;;15.27;47.27
52291;BME280;39663;45.432;28.050;2023-04-15T02:01:23;100535.24;;;15.21;47.21
52291;BME280;39663;45.432;28.050;2023-04-15T02:01:55;100535.30;;;15.40;47.08
52291;BME280;39663;45.432;28.050;2023-04-15T02:02:26;100537.47;;;15.44;46.90
52291;BME280;39663;45.432;28.050;2023-04-15T02:02:58;100536.41;;;15.00;47.12
52291;BME280;39663;45.432;28.050;2023-04-15T02:03:29;100538.95;;;15.02;47.56
52291;BME280;39663;45.432;28.050;2023-04-15T02:04:01;100541.33;;;14.92;48.29
52291;BME280;39663;45.432;28.050;2023-04-15T02:04:32;100544.55;;;14.80;48.28
52291;BME280;39663;45.432;28.050;2023-04-15T02:05:04;100546.56;;;14.78;48.07
52291;BME280;39663;45.432;28.050;2023-04-15T02:05:36;100547.40;;;14.59;48.28
52291;BME280;39663;45.432;28.050;2023-04-15T02:06:07;100548.59;;;14.55;48.36
52291;BME280;39663;45.432;28.050;2023-04-15T02:06:39;100548.33;;;14.45;48.75
52291;BME280;39663;45.432;28.050;2023-04-15T02:07:11;100549.00;;;14.39;49.00
52291;BME280;39663;45.432;28.050;2023-04-15T02:07:42;100549.08;;;14.37;48.38
52291;BME280;39663;45.432;28.050;2023-04-15T02:08:13;100549.78;;;14.21;49.35
52291;BME280;39663;45.432;28.050;2023-04-15T02:08:45;100548.89;;;14.22;49.11
52291;BME280;39663;45.432;28.050;2023-04-15T02:09:17;100549.17;;;14.12;49.29
52291;BME280;39663;45.432;28.050;2023-04-15T02:09:48;100549.82;;;14.08;49.31
52291;BME280;39663;45.432;28.050;2023-04-15T02:10:20;100552.52;;;14.17;48.61
52291;BME280;39663;45.432;28.050;2023-04-15T02:10:52;100553.17;;;14.05;48.84
52291;BME280;39663;45.432;28.050;2023-04-15T02:11:23;100554.06;;;14.19;49.87
52291;BME280;39663;45.432;28.050;2023-04-15T02:11:55;100557.43;;;14.08;49.58
52291;BME280;39663;45.432;28.050;2023-04-15T02:12:27;100558.34;;;14.09;48.75
52291;BME280;39663;45.432;28.050;2023-04-15T02:12:59;100557.56;;;14.05;48.58
52291;BME280;39663;45.432;28.050;2023-04-15T02:13:30;100560.10;;;14.04;48.88
52291;BME280;39663;45.432;28.050;2023-04-15T02:14:02;100559.57;;;13.28;50.40
52291;BME280;39663;45.432;28.050;2023-04-15T02:14:34;100559.41;;;13.46;50.01
52291;BME280;39663;45.432;28.050;2023-04-15T02:15:06;100557.21;;;13.08;50.27
52291;BME280;39663;45.432;28.050;2023-04-15T02:15:38;100558.75;;;13.17;50.19
52291;BME280;39663;45.432;28.050;2023-04-15T02:16:15;100556.98;;;13.52;50.46
52291;BME280;39663;45.432;28.050;2023-04-15T02:16:47;100556.84;;;13.43;50.61
52291;BME280;39663;45.432;28.050;2023-04-15T02:17:18;100556.78;;;13.45;50.05
52291;BME280;39663;45.432;28.050;2023-04-15T02:17:50;100558.25;;;13.63;50.83
52291;BME280;39663;45.432;28.050;2023-04-15T02:18:22;100557.98;;;13.60;50.86
52291;BME280;39663;45.432;28.050;2023-04-15T02:18:53;100557.75;;;13.45;50.18
52291;BME280;39663;45.432;28.050;2023-04-15T02:19:24;100559.75;;;13.52;49.66
52291;BME280;39663;45.432;28.050;2023-04-15T02:19:56;100561.26;;;13.12;49.94
52291;BME280;39663;45.432;28.050;2023-04-15T02:20:28;100561.13;;;13.23;50.43
52291;BME280;39663;45.432;28.050;2023-04-15T02:20:59;100560.80;;;13.13;49.42
52291;BME280;39663;45.432;28.050;2023-04-15T02:21:31;100561.91;;;13.04;50.69
52291;BME280;39663;45.432;28.050;2023-04-15T02:22:02;100560.58;;;13.60;49.86
52291;BME280;39663;45.432;28.050;2023-04-15T02:22:34;100560.42;;;13.13;49.14
52291;BME280;39663;45.432;28.050;2023-04-15T02:23:05;100561.40;;;13.14;49.58
52291;BME280;39663;45.432;28.050;2023-04-15T02:23:37;100561.61;;;12.88;49.82
52291;BME280;39663;45.432;28.050;2023-04-15T02:24:09;100561.95;;;12.92;49.84
52291;BME280;39663;45.432;28.050;2023-04-15T02:24:40;100564.40;;;12.56;50.12
52291;BME280;39663;45.432;28.050;2023-04-15T02:25:12;100567.32;;;12.83;49.80
52291;BME280;39663;45.432;28.050;2023-04-15T02:25:43;100568.73;;;12.82;50.49
52291;BME280;39663;45.432;28.050;2023-04-15T02:26:15;100570.76;;;12.73;51.34
52291;BME280;39663;45.432;28.050;2023-04-15T02:26:46;100572.21;;;13.06;51.36
52291;BME280;39663;45.432;28.050;2023-04-15T02:27:18;100573.13;;;12.98;50.76
52291;BME280;39663;45.432;28.050;2023-04-15T02:27:49;100573.84;;;13.05;51.34
52291;BME280;39663;45.432;28.050;2023-04-15T02:28:21;100573.95;;;13.20;49.95
52291;BME280;39663;45.432;28.050;2023-04-15T02:28:52;100574.63;;;13.41;50.78
52291;BME280;39663;45.432;28.050;2023-04-15T02:29:24;100574.49;;;13.45;49.40
52291;BME280;39663;45.432;28.050;2023-04-15T02:29:55;100574.36;;;13.36;50.73
52291;BME280;39663;45.432;28.050;2023-04-15T02:30:26;100574.18;;;13.48;50.48
52291;BME280;39663;45.432;28.050;2023-04-15T02:30:58;100573.80;;;13.43;49.36
52291;BME280;39663;45.432;28.050;2023-04-15T02:31:29;100574.38;;;13.61;49.08
52291;BME280;39663;45.432;28.050;2023-04-15T02:32:00;100573.11;;;13.63;49.90
52291;BME280;39663;45.432;28.050;2023-04-15T02:32:32;100575.09;;;13.54;50.03
52291;BME280;39663;45.432;28.050;2023-04-15T02:33:03;100574.45;;;13.63;49.22
52291;BME280;39663;45.432;28.050;2023-04-15T02:33:35;100574.73;;;13.92;49.29
52291;BME280;39663;45.432;28.050;2023-04-15T02:34:06;100574.38;;;13.99;49.19
52291;BME280;39663;45.432;28.050;2023-04-15T02:34:38;100575.00;;;14.07;49.06
52291;BME280;39663;45.432;28.050;2023-04-15T02:35:10;100575.59;;;14.17;48.50
52291;BME280;39663;45.432;28.050;2023-04-15T02:35:41;100573.44;;;14.21;49.05
52291;BME280;39663;45.432;28.050;2023-04-15T02:36:13;100573.99;;;13.99;47.80
52291;BME280;39663;45.432;28.050;2023-04-15T02:36:44;100575.34;;;14.07;48.02
52291;BME280;39663;45.432;28.050;2023-04-15T02:37:15;100574.29;;;14.35;48.06
52291;BME280;39663;45.432;28.050;2023-04-15T02:37:47;100577.69;;;14.41;47.15
52291;BME280;39663;45.432;28.050;2023-04-15T02:38:18;100581.63;;;13.99;47.25
52291;BME280;39663;45.432;28.050;2023-04-15T02:38:50;100582.57;;;13.97;48.42
52291;BME280;39663;45.432;28.050;2023-04-15T02:39:21;100585.93;;;14.31;47.66
52291;BME280;39663;45.432;28.050;2023-04-15T02:39:53;100589.37;;;14.00;47.32
52291;BME280;39663;45.432;28.050;2023-04-15T02:40:24;100591.45;;;13.98;48.57
52291;BME280;39663;45.432;28.050;2023-04-15T02:40:55;100593.34;;;14.06;47.84
52291;BME280;39663;45.432;28.050;2023-04-15T02:41:27;100595.34;;;14.06;46.99
52291;BME280;39663;45.432;28.050;2023-04-15T02:41:59;100596.74;;;14.18;47.80
52291;BME280;39663;45.432;28.050;2023-04-15T02:42:30;100598.94;;;14.15;47.99
52291;BME280;39663;45.432;28.050;2023-04-15T02:43:02;100600.18;;;14.24;48.43
52291;BME280;39663;45.432;28.050;2023-04-15T02:43:33;100602.09;;;14.48;48.11
52291;BME280;39663;45.432;28.050;2023-04-15T02:44:05;100603.55;;;14.21;47.40
52291;BME280;39663;45.432;28.050;2023-04-15T02:44:36;100605.00;;;14.24;46.88
52291;BME280;39663;45.432;28.050;2023-04-15T02:45:08;100605.06;;;14.23;48.12
52291;BME280;39663;45.432;28.050;2023-04-15T02:45:40;100601.36;;;14.58;46.77
52291;BME280;39663;45.432;28.050;2023-04-15T02:46:12;100604.90;;;14.48;47.73
52291;BME280;39663;45.432;28.050;2023-04-15T02:46:43;100604.19;;;14.31;46.23
52291;BME280;39663;45.432;28.050;2023-04-15T02:47:15;100606.48;;;14.43;47.54
52291;BME280;39663;45.432;28.050;2023-04-15T02:47:46;100607.63;;;14.27;47.43
52291;BME280;39663;45.432;28.050;2023-04-15T02:48:23;100609.51;;;14.49;47.14
52291;BME280;39663;45.432;28.050;2023-04-15T02:48:55;100611.06;;;14.54;47.18
52291;BME280;39663;45.432;28.050;2023-04-15T02:49:26;100612.21;;;14.23;47.37
52291;BME280;39663;45.432;28.050;2023-04-15T02:49:58;100612.10;;;14.24;47.71
52291;BME280;39663;45.432;28.050;2023-04-15T02:50:30;100614.37;;;14.32;46.89
52291;BME280;39663;45.432;28.050;2023-04-15T02:51:18;100609.55;;;14.27;47.78
52291;BME280;39663;45.432;28.050;2023-04-15T02:51:50;100612.62;;;14.32;46.50
52291;BME280;39663;45.432;28.050;2023-04-15T02:52:22;100610.60;;;14.28;47.08
52291;BME280;39663;45.432;28.050;2023-04-15T02:52:53;100613.36;;;14.42;47.80
52291;BME280;39663;45.432;28.050;2023-04-15T02:53:25;100610.67;;;14.49;46.57
52291;BME280;39663;45.432;28.050;2023-04-15T02:53:56;100612.23;;;14.46;47.68
52291;BME280;39663;45.432;28.050;2023-04-15T02:54:28;100610.50;;;14.54;47.16
52291;BME280;39663;45.432;28.050;2023-04-15T02:54:59;100606.84;;;14.59;47.04